Weather at Erin Aero Airport

Public forecast

Using degrees Fahrenheit for public forecast. Weather courtesy of forecast.io.

Closest aviation weather report (METAR) to Erin Aero Airport

Closest report is Waukesha County Airport, 13.6 nm (25.2 km) SSE. Retrieved 2022/01/22 19:45 UTC (1 hour ago):

KUES 221945Z 26018G26KT 10SM SCT033 M03/M11 A3005

Closest aviation forecast (TAF) to Erin Aero Airport

Closest forecast is Waukesha County Airport, 13.6 nm (25.2 km) SSE. Retrieved 2022/01/22 18:22 UTC (2 hours ago):

TAF KUES 221720Z 2218/2318 28016G24KT P6SM BKN025 FM222000 29015G23KT P6SM SCT090 FM230300 27006KT P6SM VCSH OVC050 FM230500 36005KT 2SM -SN SCT018 OVC030 FM231000 02006KT P6SM BKN024 FM231200 34008KT P6SM FEW050